Mankato, MN (56002)

6:40 AM CDT on July 23, 2016 (GMT -0500)
Physics & Astronomy | | Change Station

Elev 1010 ft 44.15 °N, 94.00 °W | Updated 13 seconds ago

Partly Cloudy
Partly Cloudy
77.3 °F
Feels Like 79 °F
N
5.0
Wind Variable Wind from ENE
Gusts 8.0 mph

Today
High -- | Low -- °F
--% Chance of Precip.
Yesterday
High -- | Low -- °F
Precip. -- in
Pressure 29.90 in
Visibility 10.0 miles
Clouds Few 4000 ft
Heat Index 79 °F
Dew Point 74 °F
Humidity 90%
Rainfall 0.00 in
Snow Depth Not available.
5:54 AM 8:49 PM
Waning Gibbous, 86% visible
METAR KMKT 231135Z 10009KT 10SM FEW040 26/23 A2990 RMK AO1
Pressure 29.90 in
Visibility 10.0 miles
Clouds Few 4000 ft
Heat Index 79 °F
Dew Point 74 °F
Humidity 90%
Rainfall 0.00 in
Snow Depth Not available.
5:54 AM 8:49 PM
Waning Gibbous, 86% visible
METAR KMKT 231135Z 10009KT 10SM FEW040 26/23 A2990 RMK AO1

10-Day Weather Forecast

Almanac

Astronomy

Jul. 23, 2016 Rise Set
Actual Time
Civil Twilight
Nautical Twilight
Astronomical Twilight
Moon
Length of Visible Light
Length of Day
Tomorrow will be .
, % of the Moon is Illuminated

Today's Extremes

State Highs State Lows

Community

WunderPhotos

Upload Photos

1,926,810 photos uploaded!

WunderBlog® & News

Nearby

Air Quality

  Air Quality AQ Index Pollutant
Not available.

Snow Depth

Station Depth Elevation

Earthquake Activity

City Distance Mag. Time & Date
Minimum magnitude displayed is 2.5.

Coastal Water Temperatures

Place Temperature

Stations

Nearby Weather Stations

Station Location Temp. Windchill Dew Point Humidity Wind Precip. Elev Updated Type
                   

Watches & Warnings

There are currently no watches in effect.